createdAt,value
2022-07-29T00:00:59.609Z,100790.09
2022-07-29T00:03:26.250Z,100783.91
2022-07-29T00:05:54.028Z,100791.19
2022-07-29T00:08:21.011Z,100792.28
2022-07-29T00:10:47.672Z,100798.44
2022-07-29T00:13:14.063Z,100798.94
2022-07-29T00:15:40.774Z,100787.50
2022-07-29T00:18:07.298Z,100794.47
2022-07-29T00:20:33.823Z,100793.94
2022-07-29T00:23:00.277Z,100800.63
2022-07-29T00:25:26.721Z,100793.31
2022-07-29T00:27:53.153Z,100803.63
2022-07-29T00:30:19.577Z,100799.44
2022-07-29T00:32:46.006Z,100794.41
2022-07-29T00:35:31.307Z,100792.19
2022-07-29T00:37:57.709Z,100806.09
2022-07-29T00:40:24.349Z,100797.19
2022-07-29T00:42:52.711Z,100784.31
2022-07-29T00:45:19.848Z,100785.97
2022-07-29T00:47:47.553Z,100776.75
2022-07-29T00:50:14.970Z,100779.56
2022-07-29T00:52:42.677Z,100767.53
2022-07-29T00:55:11.747Z,100768.69
2022-07-29T00:57:38.940Z,100761.13
2022-07-29T01:00:07.845Z,100769.50
2022-07-29T01:02:34.437Z,100761.38
2022-07-29T01:05:02.484Z,100758.59
2022-07-29T01:07:30.755Z,100756.06
2022-07-29T01:09:58.016Z,100759.09
2022-07-29T01:12:27.204Z,100752.97
2022-07-29T01:14:56.169Z,100745.69
2022-07-29T01:17:29.658Z,100742.34
2022-07-29T01:20:04.663Z,100739.81
2022-07-29T01:22:50.250Z,100735.06
2022-07-29T01:25:58.200Z,100733.91
2022-07-29T01:28:55.480Z,100727.22
2022-07-29T01:31:29.124Z,100729.44
2022-07-29T01:34:02.641Z,100730.00
2022-07-29T01:36:36.558Z,100726.06
2022-07-29T01:39:19.160Z,100720.44
2022-07-29T01:41:56.987Z,100725.72
2022-07-29T01:44:42.844Z,100720.41
2022-07-29T01:47:16.876Z,100718.16
2022-07-29T01:49:49.032Z,100710.88
2022-07-29T01:52:22.879Z,100716.13
2022-07-29T01:54:56.629Z,100712.19
2022-07-29T01:57:34.555Z,100715.47
2022-07-29T02:00:01.986Z,100721.00
2022-07-29T02:02:31.152Z,100724.34
2022-07-29T02:04:59.893Z,100723.75
2022-07-29T02:07:30.229Z,100724.53
2022-07-29T02:09:58.937Z,100719.19
2022-07-29T02:12:28.288Z,100726.16
2022-07-29T02:14:57.860Z,100721.63
2022-07-29T02:17:33.689Z,100719.31
2022-07-29T02:20:02.571Z,100717.06
2022-07-29T02:22:31.439Z,100723.41
2022-07-29T02:25:01.759Z,100723.66
2022-07-29T02:27:31.539Z,100718.00
2022-07-29T02:30:01.354Z,100712.13
2022-07-29T02:32:29.360Z,100715.72
2022-07-29T02:34:57.694Z,100716.25
2022-07-29T02:37:25.720Z,100722.31
2022-07-29T02:39:54.770Z,100717.28
2022-07-29T02:42:23.786Z,100716.13
2022-07-29T02:44:51.271Z,100718.84
2022-07-29T02:47:23.059Z,100718.53
2022-07-29T02:50:05.453Z,100711.78
2022-07-29T02:52:38.962Z,100720.13
2022-07-29T02:55:23.754Z,100720.34
2022-07-29T02:57:58.033Z,100713.09
2022-07-29T03:00:33.416Z,100713.88
2022-07-29T03:03:04.559Z,100716.34
2022-07-29T03:05:32.224Z,100710.75
2022-07-29T03:08:02.913Z,100724.59
2022-07-29T03:10:29.958Z,100716.44
2022-07-29T03:12:57.445Z,100719.16
2022-07-29T03:15:26.888Z,100716.06
2022-07-29T03:17:53.963Z,100719.38
2022-07-29T03:20:21.381Z,100724.34
2022-07-29T03:22:48.088Z,100724.28
2022-07-29T03:25:16.637Z,100730.28
2022-07-29T03:27:43.573Z,100730.72
2022-07-29T03:30:11.103Z,100723.44
2022-07-29T03:32:37.901Z,100720.56
2022-07-29T03:35:05.945Z,100722.41
2022-07-29T03:37:34.321Z,100713.16
2022-07-29T03:40:03.965Z,100711.50
2022-07-29T03:42:34.461Z,100709.19
2022-07-29T03:45:06.293Z,100713.94
2022-07-29T03:47:50.607Z,100712.81
2022-07-29T03:50:20.404Z,100720.91
2022-07-29T03:52:47.701Z,100718.72
2022-07-29T03:55:14.973Z,100718.72
2022-07-29T03:57:42.625Z,100722.34
2022-07-29T04:00:09.841Z,100717.88
2022-07-29T04:02:38.755Z,100721.75
2022-07-29T04:05:05.608Z,100719.22
2022-07-29T04:07:32.138Z,100727.25
2022-07-29T04:09:58.520Z,100730.00
2022-07-29T04:12:25.707Z,100734.16
2022-07-29T04:14:52.165Z,100741.88
2022-07-29T04:17:18.568Z,100746.88
2022-07-29T04:19:45.007Z,100746.88
2022-07-29T04:22:11.496Z,100748.56
2022-07-29T04:24:37.915Z,100753.59
2022-07-29T04:27:04.495Z,100748.91
2022-07-29T04:29:30.925Z,100762.50
2022-07-29T04:31:57.316Z,100759.22
2022-07-29T04:34:28.181Z,100763.69
2022-07-29T04:36:54.974Z,100756.44
2022-07-29T04:39:23.249Z,100768.41
2022-07-29T04:41:51.104Z,100769.25
2022-07-29T04:44:19.674Z,100760.66
2022-07-29T04:46:46.513Z,100766.56
2022-07-29T04:49:14.178Z,100769.91
2022-07-29T04:51:40.800Z,100765.53
2022-07-29T04:54:07.239Z,100773.13
2022-07-29T04:56:33.641Z,100777.94
2022-07-29T04:59:00.073Z,100777.41
2022-07-29T05:01:26.646Z,100785.56
2022-07-29T05:03:56.995Z,100786.75
2022-07-29T05:06:26.377Z,100790.69
2022-07-29T05:08:52.778Z,100785.47
2022-07-29T05:11:21.856Z,100789.41
2022-07-29T05:13:48.986Z,100800.00
2022-07-29T05:16:15.548Z,100803.13
2022-07-29T05:18:43.094Z,100802.94
2022-07-29T05:21:09.681Z,100788.50
2022-07-29T05:23:36.619Z,100801.91
2022-07-29T05:26:03.027Z,100797.25
2022-07-29T05:28:29.638Z,100804.81
2022-07-29T05:30:56.124Z,100801.59
2022-07-29T05:33:35.323Z,100810.81
2022-07-29T05:36:06.464Z,100814.53
2022-07-29T05:38:33.076Z,100819.03
2022-07-29T05:41:00.486Z,100819.97
2022-07-29T05:43:29.747Z,100823.63
2022-07-29T05:45:56.401Z,100827.59
2022-07-29T05:48:22.961Z,100828.78
2022-07-29T05:50:49.341Z,100831.63
2022-07-29T05:53:19.935Z,100833.59
2022-07-29T05:55:48.082Z,100844.03
2022-07-29T05:58:14.583Z,100845.50
2022-07-29T06:00:41.168Z,100853.72
2022-07-29T06:03:07.693Z,100847.63
2022-07-29T06:05:34.125Z,100859.41
2022-07-29T06:08:00.565Z,100859.53
2022-07-29T06:10:27.811Z,100864.09
2022-07-29T06:12:54.459Z,100855.78
2022-07-29T06:15:21.021Z,100858.38
2022-07-29T06:18:00.114Z,100867.13
2022-07-29T06:20:30.679Z,100858.63
2022-07-29T06:22:57.663Z,100852.84
2022-07-29T06:25:24.107Z,100852.69
2022-07-29T06:27:50.553Z,100854.44
2022-07-29T06:30:17.045Z,100852.03
2022-07-29T06:32:43.597Z,100850.34
2022-07-29T06:35:38.028Z,100854.91
2022-07-29T06:37:59.582Z,100856.06
2022-07-29T06:40:45.338Z,100849.66
2022-07-29T06:43:11.790Z,100844.94
2022-07-29T06:45:42.053Z,100844.41
2022-07-29T06:48:08.876Z,100848.63
2022-07-29T06:50:35.556Z,100845.53
2022-07-29T06:53:01.993Z,100842.19
2022-07-29T06:55:28.381Z,100836.28
2022-07-29T06:57:54.808Z,100846.66
2022-07-29T07:00:21.523Z,100852.78
2022-07-29T07:02:48.064Z,100853.63
2022-07-29T07:05:14.629Z,100847.75
2022-07-29T07:07:41.174Z,100845.50
2022-07-29T07:10:08.061Z,100844.38
2022-07-29T07:12:34.617Z,100849.41
2022-07-29T07:15:01.130Z,100849.94
2022-07-29T07:17:27.555Z,100845.47
2022-07-29T07:19:54.124Z,100839.00
2022-07-29T07:22:20.599Z,100835.63
2022-07-29T07:24:48.097Z,100840.34
2022-07-29T07:27:14.528Z,100841.44
2022-07-29T07:29:43.518Z,100841.13
2022-07-29T07:32:11.170Z,100841.66
2022-07-29T07:34:38.907Z,100830.69
2022-07-29T07:37:06.176Z,100832.38
2022-07-29T07:39:32.835Z,100823.94
2022-07-29T07:41:59.546Z,100839.34
2022-07-29T07:44:26.044Z,100835.69
2022-07-29T07:46:53.347Z,100826.97
2022-07-29T07:49:22.553Z,100833.38
2022-07-29T07:51:50.984Z,100828.31
2022-07-29T07:54:18.456Z,100828.25
2022-07-29T07:56:49.827Z,100819.84
2022-07-29T07:59:19.415Z,100813.03
2022-07-29T08:01:55.151Z,100807.66
2022-07-29T08:04:27.300Z,100797.78
2022-07-29T08:06:57.832Z,100810.63
2022-07-29T08:09:30.334Z,100815.09
2022-07-29T08:11:58.725Z,100810.84
2022-07-29T08:14:25.236Z,100802.63
2022-07-29T08:16:52.379Z,100798.75
2022-07-29T08:19:19.270Z,100805.97
2022-07-29T08:21:46.203Z,100804.53
2022-07-29T08:24:31.073Z,100806.47
2022-07-29T08:26:57.606Z,100801.66
2022-07-29T08:29:24.040Z,100800.19
2022-07-29T08:31:50.847Z,100798.16
2022-07-29T08:34:17.483Z,100796.41
2022-07-29T08:36:44.128Z,100798.75
2022-07-29T08:39:10.528Z,100792.22
2022-07-29T08:41:37.141Z,100805.69
2022-07-29T08:44:04.307Z,100798.03
2022-07-29T08:46:30.821Z,100791.59
2022-07-29T08:48:57.353Z,100794.25
2022-07-29T08:51:26.379Z,100792.38
2022-07-29T08:53:53.225Z,100795.38
2022-07-29T08:56:20.244Z,100791.50
2022-07-29T08:58:50.705Z,100792.44
2022-07-29T09:01:35.852Z,100788.56
2022-07-29T09:04:07.125Z,100780.19
2022-07-29T09:06:38.344Z,100773.88
2022-07-29T09:09:05.158Z,100774.56
2022-07-29T09:11:33.430Z,100761.19
2022-07-29T09:14:00.262Z,100770.31
2022-07-29T09:16:44.086Z,100770.97
2022-07-29T09:19:34.380Z,100761.72
2022-07-29T09:22:04.046Z,100768.31
2022-07-29T09:24:44.993Z,100761.84
2022-07-29T09:27:27.615Z,100766.19
2022-07-29T09:29:58.885Z,100751.06
2022-07-29T09:32:25.598Z,100751.06
2022-07-29T09:34:54.636Z,100750.22
2022-07-29T09:37:29.273Z,100761.16
2022-07-29T09:39:55.886Z,100745.63
2022-07-29T09:42:30.359Z,100745.38
2022-07-29T09:44:56.849Z,100745.03
2022-07-29T09:47:26.797Z,100741.94
2022-07-29T09:50:01.759Z,100739.97
2022-07-29T09:52:29.874Z,100744.19
2022-07-29T09:55:10.047Z,100743.25
2022-07-29T09:57:40.846Z,100737.59
2022-07-29T10:00:10.476Z,100722.34
2022-07-29T10:02:39.081Z,100737.06
2022-07-29T10:05:08.003Z,100726.16
2022-07-29T10:07:48.363Z,100726.81
2022-07-29T10:10:27.135Z,100731.16
2022-07-29T10:13:15.196Z,100734.41
2022-07-29T10:15:45.244Z,100725.19
2022-07-29T10:18:13.475Z,100725.72
2022-07-29T10:20:40.627Z,100723.66
2022-07-29T10:23:07.175Z,100728.84
2022-07-29T10:25:33.633Z,100720.44
2022-07-29T10:28:00.096Z,100717.00
2022-07-29T10:30:27.266Z,100713.38
2022-07-29T10:33:08.964Z,100737.38
2022-07-29T10:35:53.552Z,100718.28
2022-07-29T10:38:24.747Z,100718.97
2022-07-29T10:41:22.103Z,100711.38
2022-07-29T10:43:51.204Z,100710.53
2022-07-29T10:46:19.492Z,100713.75
2022-07-29T10:49:04.893Z,100710.25
2022-07-29T10:51:57.660Z,100708.63
2022-07-29T10:54:42.416Z,100711.28
2022-07-29T10:57:17.662Z,100703.97
2022-07-29T10:59:46.332Z,100708.13
2022-07-29T11:02:42.179Z,100706.13
2022-07-29T11:05:11.518Z,100710.28
2022-07-29T11:10:31.318Z,100704.44
2022-07-29T11:12:59.114Z,100699.44
2022-07-29T11:15:28.639Z,100691.97
2022-07-29T11:17:59.277Z,100707.75
2022-07-29T11:20:39.641Z,100701.34
2022-07-29T11:23:34.788Z,100695.16
2022-07-29T11:26:10.299Z,100694.47
2022-07-29T11:28:50.758Z,100692.75
2022-07-29T11:31:20.512Z,100687.69
2022-07-29T11:33:55.861Z,100686.22
2022-07-29T11:36:28.119Z,100693.75
2022-07-29T11:39:26.477Z,100682.84
2022-07-29T11:42:32.194Z,100679.66
2022-07-29T11:45:42.916Z,100666.00
2022-07-29T11:48:05.336Z,100669.31
2022-07-29T11:50:45.674Z,100680.19
2022-07-29T11:53:13.645Z,100685.78
2022-07-29T11:55:51.356Z,100679.84
2022-07-29T11:58:23.008Z,100682.00
2022-07-29T12:00:52.502Z,100665.91
2022-07-29T12:03:33.490Z,100679.91
2022-07-29T12:06:13.917Z,100677.53
2022-07-29T12:08:43.727Z,100687.94
2022-07-29T12:11:20.383Z,100682.19
2022-07-29T12:13:49.303Z,100677.09
2022-07-29T12:16:16.126Z,100677.06
2022-07-29T12:19:03.778Z,100667.38
2022-07-29T12:21:56.431Z,100664.41
2022-07-29T12:24:23.429Z,100665.31
2022-07-29T12:26:58.503Z,100671.97
2022-07-29T12:29:35.204Z,100668.88
2022-07-29T12:32:05.379Z,100666.31
2022-07-29T12:34:32.590Z,100667.00
2022-07-29T12:36:59.124Z,100661.59
2022-07-29T12:39:28.713Z,100673.09
2022-07-29T12:42:03.743Z,100651.88
2022-07-29T12:44:52.388Z,100669.97
2022-07-29T12:47:20.248Z,100654.72
2022-07-29T12:49:47.764Z,100653.09
2022-07-29T12:52:27.460Z,100655.22
2022-07-29T12:54:53.950Z,100653.22
2022-07-29T12:57:20.628Z,100641.66
2022-07-29T13:00:04.297Z,100645.75
2022-07-29T13:02:30.914Z,100625.88
2022-07-29T13:04:59.408Z,100626.50
2022-07-29T13:07:55.388Z,100632.69
2022-07-29T13:10:19.537Z,100626.28
2022-07-29T13:13:11.848Z,100638.06
2022-07-29T13:15:40.337Z,100641.53
2022-07-29T13:18:28.134Z,100635.06
2022-07-29T13:20:54.907Z,100660.69
2022-07-29T13:23:21.484Z,100653.31
2022-07-29T13:25:47.915Z,100653.34
2022-07-29T13:28:14.336Z,100662.47
2022-07-29T13:30:44.623Z,100662.44
2022-07-29T13:33:11.284Z,100665.63
2022-07-29T13:35:40.045Z,100653.53
2022-07-29T13:38:06.696Z,100672.69
2022-07-29T13:40:34.769Z,100671.28
2022-07-29T13:43:01.276Z,100683.09
2022-07-29T13:45:29.314Z,100676.25
2022-07-29T13:47:56.035Z,100657.19
2022-07-29T13:50:22.456Z,100659.31
2022-07-29T13:52:49.497Z,100656.16
2022-07-29T13:55:15.954Z,100649.69
2022-07-29T13:57:42.366Z,100651.09
2022-07-29T14:00:09.549Z,100655.47
2022-07-29T14:02:35.975Z,100658.47
2022-07-29T14:05:07.681Z,100667.16
2022-07-29T14:07:34.921Z,100667.75
2022-07-29T14:10:01.379Z,100661.81
2022-07-29T14:12:27.850Z,100677.22
2022-07-29T14:14:54.279Z,100669.25
2022-07-29T14:17:20.740Z,100686.13
2022-07-29T14:19:47.188Z,100680.69
2022-07-29T14:22:13.621Z,100677.75
2022-07-29T14:24:40.750Z,100683.50
2022-07-29T14:27:08.608Z,100681.91
2022-07-29T14:29:38.118Z,100670.28
2022-07-29T14:32:08.752Z,100680.34
2022-07-29T14:34:36.317Z,100670.09
2022-07-29T14:37:03.800Z,100675.34
2022-07-29T14:39:32.022Z,100669.69
2022-07-29T14:41:59.082Z,100651.44
2022-07-29T14:44:31.764Z,100669.25
2022-07-29T14:47:07.717Z,100672.84
2022-07-29T14:49:34.607Z,100666.69
2022-07-29T14:52:01.353Z,100677.00
2022-07-29T14:54:27.957Z,100677.94
2022-07-29T14:56:57.771Z,100666.09
2022-07-29T14:59:24.476Z,100686.75
2022-07-29T15:01:51.006Z,100679.28
2022-07-29T15:04:17.493Z,100672.09
2022-07-29T15:06:44.042Z,100676.97
2022-07-29T15:09:10.461Z,100672.75
2022-07-29T15:11:38.655Z,100671.44
2022-07-29T15:14:05.805Z,100671.06
2022-07-29T15:16:32.542Z,100682.50
2022-07-29T15:19:01.217Z,100671.06
2022-07-29T15:21:28.067Z,100675.78
2022-07-29T15:23:54.659Z,100677.03
2022-07-29T15:26:21.118Z,100679.88
2022-07-29T15:28:48.031Z,100681.78
2022-07-29T15:31:14.566Z,100683.78
2022-07-29T15:33:41.049Z,100687.19
2022-07-29T15:36:07.548Z,100682.31
2022-07-29T15:38:33.951Z,100672.66
2022-07-29T15:41:00.662Z,100680.91
2022-07-29T15:43:27.135Z,100682.94
2022-07-29T15:46:12.184Z,100681.06
2022-07-29T15:48:39.839Z,100673.59
2022-07-29T15:51:06.599Z,100679.88
2022-07-29T15:53:33.831Z,100668.22
2022-07-29T15:56:02.101Z,100667.69
2022-07-29T15:58:28.525Z,100674.84
2022-07-29T16:00:55.073Z,100663.59
2022-07-29T16:03:22.810Z,100669.28
2022-07-29T16:05:49.304Z,100677.31
2022-07-29T16:08:15.719Z,100678.53
2022-07-29T16:10:42.169Z,100675.00
2022-07-29T16:13:08.676Z,100688.53
2022-07-29T16:15:35.340Z,100688.31
2022-07-29T16:18:01.829Z,100692.06
2022-07-29T16:20:29.580Z,100689.97
2022-07-29T16:22:56.092Z,100694.16
2022-07-29T16:25:38.352Z,100695.34
2022-07-29T16:28:09.185Z,100703.41
2022-07-29T16:30:36.449Z,100717.34
2022-07-29T16:33:07.827Z,100700.50
2022-07-29T16:35:39.266Z,100713.59
2022-07-29T16:38:06.619Z,100710.28
2022-07-29T16:40:33.114Z,100706.31
2022-07-29T16:42:59.958Z,100727.91
2022-07-29T16:45:26.532Z,100720.09
2022-07-29T16:48:01.031Z,100728.59
2022-07-29T16:50:28.808Z,100734.94
2022-07-29T16:52:56.185Z,100735.75
2022-07-29T16:55:22.903Z,100736.91
2022-07-29T16:57:52.522Z,100746.75
2022-07-29T17:00:20.462Z,100744.41
2022-07-29T17:02:46.939Z,100745.53
2022-07-29T17:05:13.841Z,100756.69
2022-07-29T17:07:40.643Z,100745.22
2022-07-29T17:10:10.669Z,100748.22
2022-07-29T17:12:37.992Z,100753.81
2022-07-29T17:15:06.072Z,100759.13
2022-07-29T17:17:38.652Z,100761.91
2022-07-29T17:20:10.709Z,100761.38
2022-07-29T17:22:38.287Z,100771.19
2022-07-29T17:25:05.213Z,100772.47
2022-07-29T17:27:32.693Z,100782.41
2022-07-29T17:29:59.745Z,100775.56
2022-07-29T17:32:26.476Z,100780.50
2022-07-29T17:34:52.938Z,100787.78
2022-07-29T17:37:19.548Z,100781.75
2022-07-29T17:39:46.176Z,100788.81
2022-07-29T17:42:13.982Z,100781.47
2022-07-29T17:44:40.870Z,100797.56
2022-07-29T17:47:15.940Z,100786.28
2022-07-29T17:49:43.335Z,100797.03
2022-07-29T17:52:10.182Z,100796.78
2022-07-29T17:54:36.869Z,100797.09
2022-07-29T17:57:03.339Z,100795.34
2022-07-29T17:59:29.826Z,100796.56
2022-07-29T18:01:56.330Z,100799.13
2022-07-29T18:04:23.527Z,100800.53
2022-07-29T18:06:50.289Z,100805.72
2022-07-29T18:09:16.812Z,100807.41
2022-07-29T18:11:44.563Z,100815.47
2022-07-29T18:14:12.309Z,100806.63
2022-07-29T18:16:38.839Z,100810.59
2022-07-29T18:19:05.355Z,100815.72
2022-07-29T18:21:43.688Z,100811.44
2022-07-29T18:24:18.129Z,100820.69
2022-07-29T18:26:44.555Z,100811.50
2022-07-29T18:29:11.007Z,100814.31
2022-07-29T18:31:37.661Z,100823.09
2022-07-29T18:34:04.140Z,100823.53
2022-07-29T18:36:30.781Z,100817.69
2022-07-29T18:38:57.196Z,100820.00
2022-07-29T18:41:23.639Z,100821.78
2022-07-29T18:43:50.024Z,100820.47
2022-07-29T18:46:16.578Z,100832.72
2022-07-29T18:48:43.130Z,100835.69
2022-07-29T18:51:09.720Z,100830.47
2022-07-29T18:53:36.847Z,100838.38
2022-07-29T18:56:03.815Z,100835.69
2022-07-29T18:58:30.249Z,100840.97
2022-07-29T19:00:56.657Z,100844.19
2022-07-29T19:03:23.057Z,100842.44
2022-07-29T19:05:49.627Z,100849.47
2022-07-29T19:08:16.032Z,100853.66
2022-07-29T19:10:42.470Z,100852.44
2022-07-29T19:13:08.966Z,100856.63
2022-07-29T19:15:39.997Z,100857.16
2022-07-29T19:18:07.079Z,100858.19
2022-07-29T19:20:33.628Z,100859.84
2022-07-29T19:23:00.105Z,100860.56
2022-07-29T19:25:26.600Z,100864.72
2022-07-29T19:27:53.027Z,100865.25
2022-07-29T19:30:19.554Z,100869.63
2022-07-29T19:32:45.978Z,100863.53
2022-07-29T19:35:24.344Z,100876.03
2022-07-29T19:37:56.474Z,100886.84
2022-07-29T19:40:22.952Z,100884.72
2022-07-29T19:42:51.494Z,100889.91
2022-07-29T19:45:17.971Z,100892.84
2022-07-29T19:47:44.379Z,100896.34
2022-07-29T19:50:11.281Z,100893.59
2022-07-29T19:52:38.158Z,100900.53
2022-07-29T19:55:07.835Z,100904.63
2022-07-29T19:57:40.898Z,100906.50
2022-07-29T20:00:11.107Z,100909.50
2022-07-29T20:02:38.771Z,100907.97
2022-07-29T20:05:05.864Z,100915.38
2022-07-29T20:07:32.325Z,100913.03
2022-07-29T20:09:58.757Z,100917.09
2022-07-29T20:12:25.390Z,100927.03
2022-07-29T20:14:52.211Z,100933.88
2022-07-29T20:17:25.677Z,100934.84
2022-07-29T20:19:53.497Z,100944.50
2022-07-29T20:22:21.563Z,100943.75
2022-07-29T20:24:48.607Z,100951.97
2022-07-29T20:27:15.013Z,100954.56
2022-07-29T20:29:41.506Z,100955.75
2022-07-29T20:32:08.108Z,100959.13
2022-07-29T20:34:34.642Z,100959.75
2022-07-29T20:37:02.694Z,100963.47
2022-07-29T20:39:30.239Z,100967.72
2022-07-29T20:41:56.725Z,100966.09
2022-07-29T20:44:24.238Z,100968.97
2022-07-29T20:46:50.673Z,100967.88
2022-07-29T20:49:17.225Z,100968.19
2022-07-29T20:51:44.148Z,100981.97
2022-07-29T20:54:11.098Z,100970.78
2022-07-29T20:56:38.122Z,100970.81
2022-07-29T20:59:04.579Z,100969.16
2022-07-29T21:01:31.081Z,100976.47
2022-07-29T21:03:57.541Z,100977.03
2022-07-29T21:06:23.984Z,100972.84
2022-07-29T21:08:50.373Z,100978.75
2022-07-29T21:11:16.802Z,100982.69
2022-07-29T21:13:45.377Z,100991.91
2022-07-29T21:16:14.942Z,100992.19
2022-07-29T21:18:43.963Z,101001.97
2022-07-29T21:21:10.544Z,101001.41
2022-07-29T21:26:03.754Z,101007.56
2022-07-29T21:28:35.676Z,101010.63
2022-07-29T21:31:05.399Z,101011.75
2022-07-29T21:33:33.403Z,101020.13
2022-07-29T21:36:26.621Z,101016.78
2022-07-29T21:38:47.340Z,101013.97
2022-07-29T21:41:14.837Z,101015.34
2022-07-29T21:43:42.304Z,101021.19
2022-07-29T21:46:09.180Z,101014.19
2022-07-29T21:48:35.682Z,101025.06
2022-07-29T21:51:02.182Z,101020.00
2022-07-29T21:53:28.647Z,101018.59
2022-07-29T21:55:55.487Z,101022.78
2022-07-29T21:58:22.796Z,101029.50
2022-07-29T22:00:49.211Z,101015.78
2022-07-29T22:03:15.657Z,101025.00
2022-07-29T22:05:42.458Z,101021.13
2022-07-29T22:08:08.999Z,101018.31
2022-07-29T22:10:35.785Z,101005.16
2022-07-29T22:13:02.995Z,101017.19
2022-07-29T22:15:30.389Z,101023.34
2022-07-29T22:17:57.055Z,101012.44
2022-07-29T22:20:24.099Z,101024.19
2022-07-29T22:22:50.515Z,101023.34
2022-07-29T22:25:17.656Z,101024.75
2022-07-29T22:27:44.236Z,101030.34
2022-07-29T22:30:11.109Z,101032.28
2022-07-29T22:32:37.642Z,101030.97
2022-07-29T22:35:04.318Z,101029.81
2022-07-29T22:37:30.828Z,101029.56
2022-07-29T22:39:57.313Z,101034.56
2022-07-29T22:42:23.822Z,101030.66
2022-07-29T22:44:50.279Z,101031.78
2022-07-29T22:47:16.773Z,101033.47
2022-07-29T22:49:43.197Z,101033.47
2022-07-29T22:52:09.944Z,101033.47
2022-07-29T22:54:38.230Z,101032.91
2022-07-29T22:57:05.675Z,101032.03
2022-07-29T22:59:32.244Z,101031.19
2022-07-29T23:01:58.686Z,101030.34
2022-07-29T23:04:25.393Z,101029.50
2022-07-29T23:06:51.866Z,101024.19
2022-07-29T23:09:18.519Z,101028.38
2022-07-29T23:11:45.031Z,101027.81
2022-07-29T23:14:11.484Z,101019.69
2022-07-29T23:16:38.025Z,101016.59
2022-07-29T23:19:04.504Z,101024.69
2022-07-29T23:21:30.958Z,101017.69
2022-07-29T23:23:57.358Z,101017.69
2022-07-29T23:26:23.812Z,101021.03
2022-07-29T23:28:50.280Z,101028.59
2022-07-29T23:31:17.345Z,101016.25
2022-07-29T23:33:43.865Z,101017.66
2022-07-29T23:36:10.366Z,101016.53
2022-07-29T23:38:40.935Z,101023.47
2022-07-29T23:41:09.564Z,101011.72
2022-07-29T23:43:37.048Z,101004.97
2022-07-29T23:46:03.730Z,101003.53
2022-07-29T23:48:31.893Z,101008.53
2022-07-29T23:51:00.339Z,101001.25
2022-07-29T23:53:27.729Z,100999.25
2022-07-29T23:55:54.141Z,100991.69
2022-07-29T23:58:20.576Z,100993.06
